createdAt,value
2024-05-09T00:00:06.685Z,0
2024-05-09T00:05:06.374Z,0
2024-05-09T00:10:09.167Z,0
2024-05-09T00:15:06.310Z,0
2024-05-09T00:20:13.933Z,0
2024-05-09T00:25:06.297Z,0
2024-05-09T00:30:07.242Z,0
2024-05-09T00:35:06.301Z,0
2024-05-09T00:40:07.520Z,0
2024-05-09T00:45:06.340Z,0
2024-05-09T00:50:07.717Z,0
2024-05-09T00:55:06.302Z,0
2024-05-09T01:00:09.877Z,0
2024-05-09T01:05:06.354Z,0
2024-05-09T01:10:09.151Z,0
2024-05-09T01:15:06.319Z,0
2024-05-09T01:20:10.425Z,0
2024-05-09T01:25:06.329Z,0
2024-05-09T01:30:09.107Z,0
2024-05-09T01:35:06.375Z,0
2024-05-09T01:40:09.455Z,0
2024-05-09T01:45:06.343Z,0
2024-05-09T01:50:08.761Z,0
2024-05-09T01:55:06.687Z,0
2024-05-09T02:00:07.813Z,0
2024-05-09T02:10:10.804Z,0
2024-05-09T02:15:06.339Z,0
2024-05-09T02:20:06.528Z,0
2024-05-09T02:25:06.349Z,0
2024-05-09T02:30:15.076Z,0
2024-05-09T02:35:06.356Z,0
2024-05-09T02:40:09.079Z,0
2024-05-09T02:45:06.354Z,0
2024-05-09T02:50:08.029Z,0
2024-05-09T02:55:06.379Z,0
2024-05-09T03:00:12.083Z,0
2024-05-09T03:05:06.377Z,0
2024-05-09T03:10:09.594Z,0
2024-05-09T03:15:06.351Z,0
2024-05-09T03:20:09.084Z,0
2024-05-09T03:25:06.371Z,256
2024-05-09T03:30:07.498Z,258
2024-05-09T03:35:06.464Z,259
2024-05-09T03:40:09.083Z,262
2024-05-09T03:50:12.049Z,271
2024-05-09T03:55:07.707Z,278
2024-05-09T04:00:11.947Z,286
2024-05-09T04:05:07.431Z,296
2024-05-09T04:10:09.089Z,303
2024-05-09T04:15:09.629Z,313
2024-05-09T04:20:08.509Z,318
2024-05-09T04:25:07.691Z,321
2024-05-09T04:30:10.028Z,337
2024-05-09T04:35:07.415Z,347
2024-05-09T04:40:11.218Z,358
2024-05-09T04:45:07.382Z,383
2024-05-09T04:50:11.245Z,410
2024-05-09T04:55:07.644Z,456
2024-05-09T05:00:11.522Z,483
2024-05-09T05:05:07.469Z,455
2024-05-09T05:10:09.445Z,427
2024-05-09T05:15:07.392Z,552
2024-05-09T05:20:08.627Z,520
2024-05-09T05:25:07.763Z,589
2024-05-09T05:30:09.536Z,575
2024-05-09T05:35:07.447Z,616
2024-05-09T05:40:11.842Z,634
2024-05-09T05:45:09.736Z,709
2024-05-09T05:50:14.593Z,484
2024-05-09T05:55:07.683Z,424
2024-05-09T06:00:09.497Z,423
2024-05-09T06:05:07.493Z,430
2024-05-09T06:10:14.074Z,433
2024-05-09T06:15:07.411Z,444
2024-05-09T06:20:11.118Z,451
2024-05-09T06:25:07.652Z,458
2024-05-09T06:30:08.280Z,460
2024-05-09T06:35:07.489Z,467
2024-05-09T06:40:09.912Z,474
2024-05-09T06:45:07.409Z,479
2024-05-09T06:50:13.076Z,488
2024-05-09T06:55:07.724Z,502
2024-05-09T07:00:08.324Z,506
2024-05-09T07:05:07.556Z,515
2024-05-09T07:10:07.978Z,521
2024-05-09T07:15:07.429Z,525
2024-05-09T07:20:09.172Z,536
2024-05-09T07:25:07.786Z,545
2024-05-09T07:30:09.303Z,564
2024-05-09T07:35:07.460Z,598
2024-05-09T07:40:09.900Z,636
2024-05-09T07:45:20.515Z,690
2024-05-09T07:55:08.133Z,813
2024-05-09T08:00:08.221Z,870
2024-05-09T08:05:07.561Z,933
2024-05-09T08:10:10.494Z,991
2024-05-09T08:15:07.440Z,1059
2024-05-09T08:20:07.627Z,1463
2024-05-09T08:25:08.855Z,1374
2024-05-09T08:30:10.152Z,1183
2024-05-09T08:35:07.465Z,1200
2024-05-09T08:40:08.692Z,1559
2024-05-09T08:45:07.505Z,1854
2024-05-09T08:50:10.910Z,1945
2024-05-09T08:55:07.798Z,3225
2024-05-09T09:00:10.181Z,1964
2024-05-09T09:05:07.571Z,2984
2024-05-09T09:10:08.693Z,3706
2024-05-09T09:15:07.472Z,7969
2024-05-09T09:20:11.365Z,12083
2024-05-09T09:25:07.897Z,13950
2024-05-09T09:30:13.243Z,13829
2024-05-09T09:35:07.525Z,14762
2024-05-09T09:40:08.903Z,12776
2024-05-09T09:45:07.514Z,13918
2024-05-09T09:50:11.874Z,14169
2024-05-09T09:55:07.740Z,14543
2024-05-09T10:00:11.609Z,14091
2024-05-09T10:05:07.581Z,14321
2024-05-09T10:10:26.868Z,16023
2024-05-09T10:20:11.982Z,3216
2024-05-09T10:25:07.761Z,8260
2024-05-09T10:30:11.432Z,15015
2024-05-09T10:35:07.601Z,15743
2024-05-09T10:40:11.890Z,2793
2024-05-09T10:45:07.521Z,2486
2024-05-09T10:50:12.667Z,16347
2024-05-09T10:55:07.779Z,16074
2024-05-09T11:00:12.583Z,15638
2024-05-09T11:05:07.518Z,15492
2024-05-09T11:10:12.222Z,16064
2024-05-09T11:15:07.549Z,14884
2024-05-09T11:20:10.830Z,13868
2024-05-09T11:25:07.669Z,15796
2024-05-09T11:30:11.550Z,980
2024-05-09T11:35:07.552Z,13210
2024-05-09T11:40:13.590Z,14662
2024-05-09T11:45:07.545Z,12351
2024-05-09T11:50:08.197Z,14922
2024-05-09T11:55:07.784Z,6840
2024-05-09T12:00:09.575Z,10983
2024-05-09T12:05:07.637Z,8944
2024-05-09T12:10:11.645Z,3790
2024-05-09T12:15:07.561Z,14096
2024-05-09T12:20:11.291Z,14732
2024-05-09T12:25:07.817Z,6743
2024-05-09T12:30:11.252Z,4414
2024-05-09T12:35:07.575Z,1796
2024-05-09T12:45:07.551Z,1033
2024-05-09T12:50:10.842Z,3335
2024-05-09T12:55:07.712Z,886
2024-05-09T13:00:11.569Z,722
2024-05-09T13:05:07.745Z,729
2024-05-09T13:10:11.593Z,723
2024-05-09T13:15:07.572Z,706
2024-05-09T13:20:09.396Z,798
2024-05-09T13:25:08.572Z,776
2024-05-09T13:30:11.985Z,773
2024-05-09T13:35:07.564Z,757
2024-05-09T13:40:11.944Z,773
2024-05-09T13:45:07.586Z,815
2024-05-09T13:50:11.460Z,1017
2024-05-09T13:55:08.144Z,884
2024-05-09T14:00:15.050Z,751
2024-05-09T14:05:07.736Z,757
2024-05-09T14:10:13.701Z,778
2024-05-09T14:15:07.610Z,736
2024-05-09T14:20:09.522Z,737
2024-05-09T14:25:07.708Z,747
2024-05-09T14:30:12.209Z,761
2024-05-09T14:35:07.629Z,774
2024-05-09T14:40:11.952Z,1009
2024-05-09T14:45:07.625Z,737
2024-05-09T14:50:11.060Z,590
2024-05-09T14:55:09.323Z,484
2024-05-09T15:00:11.369Z,703
2024-05-09T15:05:07.707Z,696
2024-05-09T15:15:07.725Z,708
2024-05-09T15:20:09.416Z,700
2024-05-09T15:25:07.795Z,611
2024-05-09T15:30:10.503Z,602
2024-05-09T15:35:07.666Z,589
2024-05-09T15:40:12.272Z,590
2024-05-09T15:45:07.631Z,598
2024-05-09T15:50:11.935Z,716
2024-05-09T15:55:07.988Z,661
2024-05-09T16:00:09.958Z,597
2024-05-09T16:05:07.769Z,571
2024-05-09T16:10:09.451Z,569
2024-05-09T16:15:07.639Z,554
2024-05-09T16:20:11.803Z,549
2024-05-09T16:25:07.746Z,538
2024-05-09T16:30:09.452Z,450
2024-05-09T16:35:07.623Z,506
2024-05-09T16:40:09.871Z,500
2024-05-09T16:45:07.673Z,484
2024-05-09T16:50:08.556Z,469
2024-05-09T16:55:07.876Z,460
2024-05-09T17:00:11.840Z,442
2024-05-09T17:05:07.759Z,405
2024-05-09T17:10:10.431Z,370
2024-05-09T17:15:07.660Z,344
2024-05-09T17:20:08.547Z,331
2024-05-09T17:25:07.819Z,317
2024-05-09T17:30:08.094Z,317
2024-05-09T17:35:07.734Z,313
2024-05-09T17:40:14.313Z,308
2024-05-09T17:45:07.651Z,306
2024-05-09T17:50:11.697Z,301
2024-05-09T17:55:07.857Z,300
2024-05-09T18:00:11.183Z,286
2024-05-09T18:05:07.739Z,282
2024-05-09T18:10:10.122Z,279
2024-05-09T18:15:07.712Z,282
2024-05-09T18:20:09.244Z,276
2024-05-09T18:25:07.703Z,272
2024-05-09T18:35:07.711Z,266
2024-05-09T18:40:11.827Z,262
2024-05-09T18:45:07.742Z,258
2024-05-09T18:50:11.906Z,257
2024-05-09T18:55:07.857Z,0
2024-05-09T19:00:10.686Z,0
2024-05-09T19:05:07.800Z,0
2024-05-09T19:10:14.622Z,0
2024-05-09T19:15:07.777Z,0
2024-05-09T19:20:11.503Z,0
2024-05-09T19:25:07.775Z,0
2024-05-09T19:30:14.061Z,0
2024-05-09T19:35:07.705Z,0
2024-05-09T19:40:10.468Z,0
2024-05-09T19:45:07.706Z,0
2024-05-09T19:50:11.022Z,0
2024-05-09T19:55:08.053Z,0
2024-05-09T20:00:09.737Z,0
2024-05-09T20:05:07.803Z,0
2024-05-09T20:10:13.194Z,0
2024-05-09T20:15:07.722Z,0
2024-05-09T20:20:11.290Z,0
2024-05-09T20:25:07.954Z,0
2024-05-09T20:30:11.700Z,0
2024-05-09T20:35:07.733Z,0
2024-05-09T20:40:09.785Z,0
2024-05-09T20:45:07.753Z,0
2024-05-09T20:50:13.659Z,0
2024-05-09T20:55:07.807Z,0
2024-05-09T21:05:07.905Z,0
2024-05-09T21:10:12.680Z,0
2024-05-09T21:15:07.745Z,0
2024-05-09T21:20:11.479Z,0
2024-05-09T21:25:07.810Z,0
2024-05-09T21:30:10.299Z,0
2024-05-09T21:35:07.748Z,0
2024-05-09T21:40:11.232Z,0
2024-05-09T21:45:07.788Z,0
2024-05-09T21:50:07.992Z,0
2024-05-09T21:55:07.777Z,0
2024-05-09T22:00:10.972Z,0
2024-05-09T22:05:07.965Z,0
2024-05-09T22:10:10.044Z,0
2024-05-09T22:15:07.791Z,0
2024-05-09T22:20:11.889Z,0
2024-05-09T22:25:07.822Z,0
2024-05-09T22:30:11.586Z,0
2024-05-09T22:35:07.847Z,0
2024-05-09T22:40:09.373Z,0
2024-05-09T22:45:07.799Z,0
2024-05-09T22:50:10.778Z,0
2024-05-09T22:55:07.822Z,0
2024-05-09T23:00:07.988Z,0
2024-05-09T23:05:07.923Z,0
2024-05-09T23:10:11.061Z,0
2024-05-09T23:15:07.804Z,0
2024-05-09T23:20:11.314Z,0
2024-05-09T23:25:07.861Z,0
2024-05-09T23:30:09.941Z,0
2024-05-09T23:35:07.814Z,0
2024-05-09T23:40:09.549Z,0
2024-05-09T23:45:07.790Z,0
2024-05-09T23:50:11.117Z,0
2024-05-09T23:55:07.843Z,0
